Kelsey, California
Current Conditions -  °F | °C
As of 10:55 AM on Saturday 25 Oct 2014 (Local Time) from KPVF Reporting Station
Overcast Overcast  
Wind Chill: 44°   Ceiling: 200
Heat Index: 48°   Visibility: 0mi
Dew Point: 48°   Wind: 9mph
Humidity: 100%   Direction: 230°SW
Pressure: 30.11"   Gusts: 16mph
Location:  38.7308°N, 120.774°W
Report Text: KPVF 251755Z AUTO 23008G14KT M1/4SM OVC002 09/09 A3011 RMK AO1 P0013
Loading
Personal Weather Stations






























Interactive Weather Map
Tropical Storm Tracking
New forecast layout! Learn more

10-Day Weather Forecast

Advertisements
Track Severe Weather on mobile